createdAt,value
2018-09-09T00:03:01.243Z,12.90
2018-09-09T00:07:44.892Z,13.00
2018-09-09T00:12:28.527Z,13.00
2018-09-09T00:17:12.247Z,13.00
2018-09-09T00:21:56.017Z,13.00
2018-09-09T00:26:39.873Z,13.10
2018-09-09T00:31:23.546Z,13.20
2018-09-09T00:36:07.280Z,13.30
2018-09-09T00:40:51.118Z,13.30
2018-09-09T00:45:34.900Z,13.20
2018-09-09T00:50:23.974Z,13.30
2018-09-09T00:55:07.654Z,13.10
2018-09-09T00:59:51.434Z,13.10
2018-09-09T01:04:35.147Z,13.20
2018-09-09T01:09:19.024Z,13.30
2018-09-09T01:14:02.655Z,13.30
2018-09-09T01:18:47.115Z,13.40
2018-09-09T01:23:30.793Z,13.40
2018-09-09T01:28:14.428Z,13.30
2018-09-09T01:32:58.159Z,13.30
2018-09-09T01:37:41.869Z,13.10
2018-09-09T01:42:26.066Z,12.90
2018-09-09T01:47:09.756Z,12.80
2018-09-09T01:51:53.598Z,12.60
2018-09-09T01:56:37.189Z,12.40
2018-09-09T02:01:20.865Z,12.20
2018-09-09T02:06:04.511Z,12.00
2018-09-09T02:10:48.307Z,11.90
2018-09-09T02:15:32.044Z,11.90
2018-09-09T02:20:15.955Z,12.00
2018-09-09T02:24:59.865Z,12.20
2018-09-09T02:29:43.625Z,12.50
2018-09-09T02:34:27.255Z,12.50
2018-09-09T02:39:11.419Z,12.70
2018-09-09T02:43:55.145Z,12.80
2018-09-09T02:48:39.534Z,13.10
2018-09-09T02:53:23.239Z,12.90
2018-09-09T02:58:07.061Z,12.60
2018-09-09T03:02:50.833Z,12.60
2018-09-09T03:07:34.599Z,12.80
2018-09-09T03:12:18.317Z,12.80
2018-09-09T03:17:02.822Z,12.80
2018-09-09T03:21:46.483Z,12.90
2018-09-09T03:26:30.183Z,13.10
2018-09-09T03:31:14.009Z,13.20
2018-09-09T03:35:57.802Z,13.20
2018-09-09T03:40:41.649Z,13.10
2018-09-09T03:45:25.468Z,13.00
2018-09-09T03:50:09.320Z,13.00
2018-09-09T03:54:53.081Z,13.10
2018-09-09T03:59:36.818Z,13.20
2018-09-09T04:04:20.593Z,13.40
2018-09-09T04:09:05.332Z,13.50
2018-09-09T04:13:49.133Z,13.60
2018-09-09T04:18:32.844Z,13.70
2018-09-09T04:23:16.664Z,13.70
2018-09-09T04:28:00.560Z,13.60
2018-09-09T04:32:44.216Z,13.60
2018-09-09T04:37:28.203Z,13.50
2018-09-09T04:42:12.796Z,13.50
2018-09-09T04:46:56.482Z,13.40
2018-09-09T04:51:40.327Z,13.40
2018-09-09T04:56:24.156Z,13.50
2018-09-09T05:01:08.456Z,13.50
2018-09-09T05:05:52.330Z,13.60
2018-09-09T05:10:36.170Z,13.60
2018-09-09T05:15:20.191Z,13.80
2018-09-09T05:20:04.271Z,13.90
2018-09-09T05:24:48.070Z,14.00
2018-09-09T05:29:31.977Z,14.20
2018-09-09T05:34:15.698Z,14.30
2018-09-09T05:39:00.086Z,14.40
2018-09-09T05:43:43.917Z,14.40
2018-09-09T05:48:27.860Z,14.40
2018-09-09T05:53:11.774Z,14.60
2018-09-09T05:57:55.466Z,14.80
2018-09-09T06:02:39.174Z,15.00
2018-09-09T06:07:23.718Z,15.20
2018-09-09T06:12:07.637Z,15.20
2018-09-09T06:16:51.435Z,15.30
2018-09-09T06:21:35.271Z,15.40
2018-09-09T06:26:19.140Z,15.50
2018-09-09T06:31:03.011Z,15.70
2018-09-09T06:35:46.721Z,15.90
2018-09-09T06:40:30.484Z,16.10
2018-09-09T06:45:14.608Z,16.60
2018-09-09T06:49:58.416Z,17.10
2018-09-09T06:54:42.246Z,17.40
2018-09-09T06:59:26.946Z,17.80
2018-09-09T07:04:10.868Z,17.90
2018-09-09T07:08:54.525Z,18.10
2018-09-09T07:13:38.234Z,18.30
2018-09-09T07:18:22.160Z,18.60
2018-09-09T07:23:06.872Z,18.80
2018-09-09T07:27:51.262Z,18.90
2018-09-09T07:32:36.151Z,19.00
2018-09-09T07:37:20.047Z,18.80
2018-09-09T07:42:04.311Z,18.60
2018-09-09T07:46:48.086Z,18.20
2018-09-09T07:51:32.727Z,18.20
2018-09-09T07:56:16.528Z,18.60
2018-09-09T08:01:00.439Z,19.40
2018-09-09T08:05:45.524Z,20.40
2018-09-09T08:10:29.383Z,21.00
2018-09-09T08:15:13.059Z,21.90
2018-09-09T08:19:57.040Z,21.90
2018-09-09T08:24:41.070Z,22.10
2018-09-09T08:29:25.136Z,22.50
2018-09-09T08:34:09.585Z,22.90
2018-09-09T08:38:53.617Z,22.80
2018-09-09T08:43:37.548Z,23.00
2018-09-09T08:48:21.420Z,23.20
2018-09-09T08:53:06.187Z,23.40
2018-09-09T08:57:50.400Z,23.40
2018-09-09T09:02:34.403Z,23.50
2018-09-09T09:07:18.214Z,23.70
2018-09-09T09:12:06.276Z,23.90
2018-09-09T09:16:50.162Z,23.70
2018-09-09T09:21:34.116Z,24.00
2018-09-09T09:26:18.412Z,24.20
2018-09-09T09:31:02.588Z,24.30
2018-09-09T09:35:50.035Z,24.60
2018-09-09T09:40:38.850Z,24.80
2018-09-09T09:45:23.188Z,25.20
2018-09-09T09:50:25.355Z,25.10
2018-09-09T09:55:12.276Z,24.80
2018-09-09T10:05:16.947Z,25.60
2018-09-09T10:10:02.379Z,25.90
2018-09-09T10:14:46.514Z,26.10
2018-09-09T10:24:35.671Z,26.90
2018-09-09T10:29:19.605Z,27.40
2018-09-09T10:34:03.306Z,27.20
2018-09-09T10:38:49.221Z,27.80
2018-09-09T10:43:33.707Z,27.40
2018-09-09T10:48:18.325Z,27.10
2018-09-09T10:53:02.490Z,26.80
2018-09-09T10:57:46.846Z,26.10
2018-09-09T11:02:39.989Z,26.10
2018-09-09T11:07:24.634Z,26.40
2018-09-09T11:12:10.190Z,26.80
2018-09-09T11:16:54.466Z,27.30
2018-09-09T11:21:38.505Z,27.10
2018-09-09T11:26:30.827Z,26.70
2018-09-09T11:36:22.381Z,26.80
2018-09-09T11:41:06.555Z,27.10
2018-09-09T11:45:50.308Z,28.00
2018-09-09T11:50:34.293Z,27.90
2018-09-09T12:00:37.281Z,28.00
2018-09-09T12:05:21.279Z,28.10
2018-09-09T12:10:08.425Z,27.60
2018-09-09T12:14:55.277Z,27.50
2018-09-09T12:19:43.493Z,26.40
2018-09-09T12:24:27.382Z,26.00
2018-09-09T12:29:11.316Z,26.40
2018-09-09T12:33:55.059Z,26.30
2018-09-09T12:38:38.955Z,26.30
2018-09-09T12:43:28.587Z,26.10
2018-09-09T12:48:19.161Z,26.10
2018-09-09T12:53:02.871Z,26.00
2018-09-09T12:57:55.647Z,25.60
2018-09-09T13:02:39.342Z,25.50
2018-09-09T13:07:22.979Z,25.30
2018-09-09T13:12:06.829Z,25.10
2018-09-09T13:16:53.340Z,25.30
2018-09-09T13:21:37.493Z,25.00
2018-09-09T13:26:21.674Z,24.30
2018-09-09T13:31:05.525Z,24.00
2018-09-09T13:35:49.707Z,24.30
2018-09-09T13:40:33.849Z,24.20
2018-09-09T13:45:17.685Z,23.90
2018-09-09T13:50:01.889Z,23.90
2018-09-09T13:54:46.548Z,24.20
2018-09-09T13:59:30.859Z,24.20
2018-09-09T14:04:15.162Z,23.90
2018-09-09T14:08:59.597Z,24.00
2018-09-09T14:13:43.534Z,24.80
2018-09-09T14:18:27.367Z,25.20
2018-09-09T14:23:11.094Z,25.30
2018-09-09T14:27:54.878Z,25.40
2018-09-09T14:32:38.712Z,25.60
2018-09-09T14:37:22.726Z,26.30
2018-09-09T14:42:06.951Z,26.50
2018-09-09T14:46:51.104Z,26.40
2018-09-09T14:51:35.137Z,26.30
2018-09-09T14:56:19.146Z,26.20
2018-09-09T15:01:04.497Z,26.60
2018-09-09T15:05:48.968Z,26.00
2018-09-09T15:10:32.959Z,26.10
2018-09-09T15:15:17.316Z,26.10
2018-09-09T15:20:01.333Z,25.30
2018-09-09T15:24:45.173Z,24.80
2018-09-09T15:29:29.209Z,24.40
2018-09-09T15:34:13.043Z,24.20
2018-09-09T15:38:56.849Z,24.10
2018-09-09T15:43:40.936Z,24.00
2018-09-09T15:48:24.805Z,23.90
2018-09-09T15:53:08.892Z,24.00
2018-09-09T15:57:53.305Z,24.10
2018-09-09T16:02:37.245Z,24.50
2018-09-09T16:07:21.293Z,24.40
2018-09-09T16:12:05.988Z,24.00
2018-09-09T16:16:49.806Z,23.60
2018-09-09T16:21:33.514Z,22.90
2018-09-09T16:26:17.356Z,22.40
2018-09-09T16:31:02.368Z,21.90
2018-09-09T16:35:46.328Z,21.60
2018-09-09T16:40:30.213Z,21.20
2018-09-09T16:45:14.212Z,21.10
2018-09-09T16:49:58.236Z,20.80
2018-09-09T16:54:42.398Z,20.50
2018-09-09T16:59:26.128Z,20.40
2018-09-09T17:04:09.805Z,20.20
2018-09-09T17:08:54.315Z,19.90
2018-09-09T17:13:38.137Z,19.70
2018-09-09T17:25:19.654Z,19.20
2018-09-09T17:30:03.672Z,18.70
2018-09-09T17:34:47.960Z,18.30
2018-09-09T17:39:31.733Z,18.00
2018-09-09T17:44:16.601Z,17.70
2018-09-09T17:49:00.606Z,17.40
2018-09-09T17:53:55.003Z,17.10
2018-09-09T17:58:38.963Z,17.00
2018-09-09T18:03:26.805Z,16.70
2018-09-09T18:08:11.866Z,16.50
2018-09-09T18:12:55.773Z,16.30
2018-09-09T18:17:39.709Z,16.20
2018-09-09T18:22:23.672Z,16.10
2018-09-09T18:27:07.720Z,16.10
2018-09-09T18:31:51.929Z,16.00
2018-09-09T18:36:44.887Z,15.90
2018-09-09T18:41:29.322Z,15.80
2018-09-09T18:46:13.943Z,15.70
2018-09-09T18:51:00.046Z,15.60
2018-09-09T18:55:44.269Z,15.90
2018-09-09T19:00:28.559Z,16.40
2018-09-09T19:05:13.775Z,16.80
2018-09-09T19:09:57.625Z,16.90
2018-09-09T19:14:42.135Z,17.00
2018-09-09T19:19:27.434Z,17.00
2018-09-09T19:24:11.383Z,17.10
2018-09-09T19:28:55.296Z,17.10
2018-09-09T19:33:39.348Z,17.30
2018-09-09T19:38:23.306Z,17.30
2018-09-09T19:43:07.508Z,17.40
2018-09-09T19:47:51.473Z,17.30
2018-09-09T19:52:36.396Z,17.40
2018-09-09T19:57:20.864Z,17.40
2018-09-09T20:02:04.980Z,17.50
2018-09-09T20:06:49.477Z,17.40
2018-09-09T20:11:39.564Z,17.40
2018-09-09T20:16:23.390Z,17.20
2018-09-09T20:21:12.494Z,17.10
2018-09-09T20:25:56.975Z,17.10
2018-09-09T20:30:41.588Z,17.00
2018-09-09T20:35:27.185Z,17.00
2018-09-09T20:40:10.837Z,17.10
2018-09-09T20:44:55.048Z,17.10
2018-09-09T20:49:39.305Z,17.10
2018-09-09T20:54:23.126Z,17.10
2018-09-09T20:59:07.392Z,17.10
2018-09-09T21:03:51.648Z,16.90
2018-09-09T21:08:35.863Z,16.80
2018-09-09T21:13:19.666Z,16.80
2018-09-09T21:18:03.436Z,16.80
2018-09-09T21:22:47.465Z,16.70
2018-09-09T21:27:31.285Z,16.60
2018-09-09T21:32:15.280Z,16.60
2018-09-09T21:36:59.404Z,16.60
2018-09-09T21:41:43.294Z,16.60
2018-09-09T21:46:27.120Z,16.50
2018-09-09T21:51:11.077Z,16.40
2018-09-09T21:55:55.211Z,16.20
2018-09-09T22:02:45.308Z,16.00
2018-09-09T22:07:29.142Z,15.90
2018-09-09T22:12:13.525Z,15.60
2018-09-09T22:16:57.424Z,15.40
2018-09-09T22:21:41.588Z,15.30
2018-09-09T22:26:25.378Z,15.30
2018-09-09T22:31:09.123Z,15.20
2018-09-09T22:35:52.871Z,15.20
2018-09-09T22:40:37.148Z,15.20
2018-09-09T22:45:20.863Z,15.20
2018-09-09T22:50:04.804Z,15.20
2018-09-09T22:54:48.653Z,15.10
2018-09-09T22:59:32.415Z,15.20
2018-09-09T23:04:16.309Z,15.10
2018-09-09T23:09:00.199Z,15.10
2018-09-09T23:13:44.073Z,15.00
2018-09-09T23:18:28.982Z,15.10
2018-09-09T23:23:12.806Z,15.00
2018-09-09T23:27:56.753Z,15.00
2018-09-09T23:32:40.665Z,15.00
2018-09-09T23:37:24.498Z,14.90
2018-09-09T23:42:08.377Z,14.80
2018-09-09T23:46:52.219Z,14.80
2018-09-09T23:51:36.096Z,14.80
2018-09-09T23:56:19.856Z,14.70
